createdAt,value
2018-04-06T00:00:56.808Z,95.31
2018-04-06T00:01:56.792Z,95.69
2018-04-06T00:02:56.777Z,95.36
2018-04-06T00:03:56.761Z,95.45
2018-04-06T00:04:56.746Z,95.78
2018-04-06T00:05:56.730Z,95.59
2018-04-06T00:06:56.723Z,95.97
2018-04-06T00:07:56.707Z,95.88
2018-04-06T00:08:56.684Z,95.40
2018-04-06T00:09:56.668Z,96.12
2018-04-06T00:10:56.652Z,96.16
2018-04-06T00:11:56.640Z,96.26
2018-04-06T00:12:56.622Z,96.50
2018-04-06T00:13:56.620Z,96.31
2018-04-06T00:14:56.599Z,95.78
2018-04-06T00:15:56.575Z,95.88
2018-04-06T00:16:56.560Z,95.78
2018-04-06T00:17:56.544Z,95.59
2018-04-06T00:18:56.531Z,95.78
2018-04-06T00:19:56.514Z,95.97
2018-04-06T00:20:56.498Z,95.59
2018-04-06T00:21:56.482Z,95.88
2018-04-06T00:22:56.467Z,95.97
2018-04-06T00:23:56.452Z,95.69
2018-04-06T00:24:56.440Z,95.88
2018-04-06T00:25:56.422Z,96.54
2018-04-06T00:26:56.404Z,96.73
2018-04-06T00:27:56.395Z,96.73
2018-04-06T00:28:56.378Z,96.45
2018-04-06T00:29:56.365Z,96.26
2018-04-06T00:30:56.342Z,96.21
2018-04-06T00:31:56.349Z,95.40
2018-04-06T00:32:56.312Z,95.31
2018-04-06T00:33:56.295Z,95.31
2018-04-06T00:34:56.280Z,95.59
2018-04-06T00:35:56.281Z,95.97
2018-04-06T00:36:56.253Z,95.59
2018-04-06T00:37:56.264Z,95.21
2018-04-06T00:38:56.218Z,95.59
2018-04-06T00:39:56.205Z,95.59
2018-04-06T00:40:56.190Z,95.59
2018-04-06T00:41:56.197Z,95.88
2018-04-06T00:42:56.155Z,95.59
2018-04-06T00:43:56.139Z,95.78
2018-04-06T00:44:56.124Z,95.97
2018-04-06T00:45:56.107Z,96.54
2018-04-06T00:46:56.092Z,96.54
2018-04-06T00:47:56.077Z,96.92
2018-04-06T00:48:56.065Z,96.64
2018-04-06T00:49:56.044Z,96.64
2018-04-06T00:50:56.042Z,96.64
2018-04-06T00:51:56.664Z,96.64
2018-04-06T00:52:56.000Z,96.73
2018-04-06T00:53:55.982Z,96.54
2018-04-06T00:54:55.966Z,96.64
2018-04-06T00:55:55.950Z,96.83
2018-04-06T00:56:55.935Z,96.83
2018-04-06T00:57:55.930Z,97.20
2018-04-06T00:58:55.914Z,97.49
2018-04-06T00:59:55.888Z,97.39
2018-04-06T01:00:55.873Z,96.83
2018-04-06T01:01:55.856Z,96.35
2018-04-06T01:02:55.843Z,96.64
2018-04-06T01:03:55.825Z,96.16
2018-04-06T01:04:55.813Z,96.16
2018-04-06T01:05:55.794Z,95.78
2018-04-06T01:06:55.778Z,96.16
2018-04-06T01:07:55.778Z,96.07
2018-04-06T01:08:55.747Z,95.97
2018-04-06T01:09:55.831Z,95.40
2018-04-06T01:10:55.716Z,95.21
2018-04-06T01:11:55.704Z,95.40
2018-04-06T01:12:55.700Z,95.40
2018-04-06T01:13:55.680Z,95.59
2018-04-06T01:14:55.653Z,95.78
2018-04-06T01:15:55.640Z,95.21
2018-04-06T01:16:55.626Z,94.93
2018-04-06T01:17:55.606Z,95.50
2018-04-06T01:18:55.591Z,95.78
2018-04-06T01:19:55.582Z,95.12
2018-04-06T01:20:55.566Z,95.07
2018-04-06T01:21:55.552Z,94.65
2018-04-06T01:22:55.528Z,94.84
2018-04-06T01:23:55.514Z,95.07
2018-04-06T01:24:55.498Z,95.55
2018-04-06T01:25:55.482Z,94.56
2018-04-06T01:26:55.466Z,95.07
2018-04-06T01:27:55.550Z,95.36
2018-04-06T01:28:55.435Z,95.07
2018-04-06T01:29:55.419Z,95.21
2018-04-06T01:30:55.403Z,94.84
2018-04-06T01:31:55.391Z,95.45
2018-04-06T01:32:55.374Z,96.02
2018-04-06T01:33:55.358Z,95.78
2018-04-06T01:34:55.353Z,95.88
2018-04-06T01:35:55.363Z,96.16
2018-04-06T01:36:55.312Z,95.78
2018-04-06T01:37:55.296Z,95.74
2018-04-06T01:38:55.296Z,94.79
2018-04-06T01:39:55.272Z,94.23
2018-04-06T01:40:55.251Z,94.18
2018-04-06T01:41:55.235Z,94.42
2018-04-06T01:42:55.227Z,94.42
2018-04-06T01:43:55.204Z,93.70
2018-04-06T01:44:55.210Z,93.32
2018-04-06T01:45:55.175Z,93.94
2018-04-06T01:46:55.158Z,93.56
2018-04-06T01:47:55.142Z,93.94
2018-04-06T01:48:55.127Z,93.32
2018-04-06T01:49:55.111Z,94.18
2018-04-06T01:50:55.096Z,94.60
2018-04-06T01:51:55.080Z,94.32
2018-04-06T01:52:55.114Z,94.79
2018-04-06T01:53:55.049Z,95.26
2018-04-06T01:54:55.038Z,94.84
2018-04-06T01:55:55.034Z,93.94
2018-04-06T01:56:55.020Z,93.84
2018-04-06T01:57:54.990Z,93.56
2018-04-06T01:58:54.972Z,93.32
2018-04-06T01:59:55.011Z,92.85
2018-04-06T02:00:54.942Z,93.27
2018-04-06T02:01:54.925Z,93.08
2018-04-06T02:02:54.911Z,93.18
2018-04-06T02:03:54.956Z,93.08
2018-04-06T02:04:54.880Z,93.27
2018-04-06T02:05:54.863Z,93.84
2018-04-06T02:06:54.853Z,93.94
2018-04-06T02:07:54.837Z,94.23
2018-04-06T02:08:54.818Z,94.04
2018-04-06T02:09:54.802Z,93.56
2018-04-06T02:10:54.789Z,93.08
2018-04-06T02:11:54.772Z,93.08
2018-04-06T02:12:54.761Z,93.08
2018-04-06T02:13:54.742Z,93.94
2018-04-06T02:14:54.726Z,94.13
2018-04-06T02:15:54.712Z,94.23
2018-04-06T02:16:54.696Z,94.89
2018-04-06T02:17:54.692Z,95.07
2018-04-06T02:18:54.671Z,94.70
2018-04-06T02:19:54.684Z,94.70
2018-04-06T02:20:54.636Z,94.98
2018-04-06T02:21:54.620Z,94.51
2018-04-06T02:22:54.611Z,93.37
2018-04-06T02:23:54.590Z,93.75
2018-04-06T02:24:54.626Z,93.18
2018-04-06T02:25:54.574Z,93.08
2018-04-06T02:26:54.561Z,93.27
2018-04-06T02:27:54.529Z,92.99
2018-04-06T02:28:54.525Z,93.37
2018-04-06T02:29:54.498Z,93.89
2018-04-06T02:30:54.484Z,94.42
2018-04-06T02:31:54.469Z,94.79
2018-04-06T02:32:54.454Z,94.56
2018-04-06T02:33:54.437Z,94.32
2018-04-06T02:34:54.422Z,94.32
2018-04-06T02:35:54.410Z,94.70
2018-04-06T02:36:54.393Z,94.79
2018-04-06T02:37:54.378Z,95.17
2018-04-06T02:38:54.374Z,94.89
2018-04-06T02:39:54.447Z,94.65
2018-04-06T02:40:54.335Z,94.42
2018-04-06T02:41:54.316Z,94.51
2018-04-06T02:42:54.306Z,94.46
2018-04-06T02:43:54.285Z,94.74
2018-04-06T02:44:54.271Z,94.27
2018-04-06T02:45:54.269Z,94.84
2018-04-06T02:46:54.249Z,94.46
2018-04-06T02:47:54.224Z,95.03
2018-04-06T02:48:54.209Z,94.84
2018-04-06T02:49:54.194Z,95.88
2018-04-06T02:50:54.178Z,95.97
2018-04-06T02:51:54.164Z,95.78
2018-04-06T02:52:54.148Z,95.59
2018-04-06T02:53:54.132Z,96.45
2018-04-06T02:54:54.117Z,96.16
2018-04-06T02:55:54.101Z,96.64
2018-04-06T02:56:54.087Z,95.97
2018-04-06T02:57:54.070Z,95.97
2018-04-06T02:58:54.055Z,95.69
2018-04-06T02:59:54.053Z,95.59
2018-04-06T03:00:54.055Z,95.69
2018-04-06T03:01:54.015Z,95.69
2018-04-06T03:02:53.994Z,95.40
2018-04-06T03:03:54.000Z,95.69
2018-04-06T03:04:53.963Z,95.59
2018-04-06T03:05:53.946Z,95.50
2018-04-06T03:06:53.931Z,95.40
2018-04-06T03:07:53.927Z,95.40
2018-04-06T03:08:53.936Z,95.69
2018-04-06T03:09:53.885Z,96.26
2018-04-06T03:10:53.870Z,96.64
2018-04-06T03:11:53.862Z,96.54
2018-04-06T03:12:53.839Z,96.73
2018-04-06T03:13:53.827Z,96.26
2018-04-06T03:14:53.813Z,96.54
2018-04-06T03:15:53.794Z,96.07
2018-04-06T03:16:53.780Z,95.78
2018-04-06T03:17:53.762Z,95.40
2018-04-06T03:18:53.759Z,95.12
2018-04-06T03:19:53.731Z,94.84
2018-04-06T03:20:53.717Z,94.51
2018-04-06T03:21:53.711Z,94.60
2018-04-06T03:22:53.693Z,95.12
2018-04-06T03:23:53.670Z,94.65
2018-04-06T03:24:53.654Z,94.23
2018-04-06T03:25:53.637Z,94.56
2018-04-06T03:26:53.622Z,94.18
2018-04-06T03:27:53.606Z,93.89
2018-04-06T03:28:53.592Z,94.13
2018-04-06T03:29:53.584Z,94.23
2018-04-06T03:30:53.561Z,93.56
2018-04-06T03:31:53.544Z,93.08
2018-04-06T03:32:53.528Z,93.37
2018-04-06T03:33:53.512Z,93.18
2018-04-06T03:34:53.496Z,93.08
2018-04-06T03:35:53.482Z,93.46
2018-04-06T03:36:53.467Z,93.18
2018-04-06T03:37:53.450Z,92.99
2018-04-06T03:38:53.434Z,92.99
2018-04-06T03:39:53.419Z,92.80
2018-04-06T03:40:53.403Z,92.61
2018-04-06T03:41:53.387Z,93.27
2018-04-06T03:42:53.372Z,92.99
2018-04-06T03:43:53.355Z,92.52
2018-04-06T03:44:53.353Z,92.52
2018-04-06T03:45:53.328Z,92.61
2018-04-06T03:46:53.335Z,91.95
2018-04-06T03:47:53.293Z,92.43
2018-04-06T03:48:53.278Z,92.61
2018-04-06T03:49:53.262Z,92.71
2018-04-06T03:50:53.245Z,92.24
2018-04-06T03:51:53.241Z,92.71
2018-04-06T03:52:53.253Z,92.99
2018-04-06T03:53:53.202Z,93.37
2018-04-06T03:54:53.183Z,92.90
2018-04-06T03:55:53.176Z,92.90
2018-04-06T03:56:53.152Z,92.61
2018-04-06T03:57:53.136Z,93.46
2018-04-06T03:58:53.120Z,92.90
2018-04-06T03:59:53.105Z,93.56
2018-04-06T04:00:53.089Z,93.32
2018-04-06T04:01:53.074Z,93.32
2018-04-06T04:02:53.058Z,93.18
2018-04-06T04:03:53.042Z,93.13
2018-04-06T04:04:53.028Z,93.94
2018-04-06T04:05:53.016Z,94.46
2018-04-06T04:06:53.006Z,94.70
2018-04-06T04:07:52.992Z,94.56
2018-04-06T04:08:52.965Z,94.27
2018-04-06T04:09:52.950Z,94.37
2018-04-06T04:10:52.937Z,94.65
2018-04-06T04:11:52.922Z,94.46
2018-04-06T04:12:52.903Z,94.27
2018-04-06T04:13:52.904Z,94.08
2018-04-06T04:14:52.877Z,94.27
2018-04-06T04:15:52.856Z,94.18
2018-04-06T04:16:52.841Z,94.18
2018-04-06T04:17:52.825Z,94.84
2018-04-06T04:18:52.813Z,94.37
2018-04-06T04:19:52.794Z,94.65
2018-04-06T04:20:52.780Z,94.84
2018-04-06T04:21:52.763Z,94.84
2018-04-06T04:22:52.747Z,94.65
2018-04-06T04:23:52.731Z,94.65
2018-04-06T04:24:52.716Z,95.40
2018-04-06T04:25:52.701Z,95.03
2018-04-06T04:26:52.685Z,95.03
2018-04-06T04:27:52.769Z,94.74
2018-04-06T04:28:52.670Z,94.93
2018-04-06T04:29:52.651Z,95.50
2018-04-06T04:30:52.664Z,95.50
2018-04-06T04:31:52.608Z,95.31
2018-04-06T04:32:52.595Z,95.69
2018-04-06T04:33:52.575Z,95.78
2018-04-06T04:34:52.567Z,95.78
2018-04-06T04:35:52.548Z,95.78
2018-04-06T04:36:52.541Z,95.59
2018-04-06T04:37:52.512Z,95.69
2018-04-06T04:38:52.498Z,95.78
2018-04-06T04:39:52.528Z,95.03
2018-04-06T04:40:52.489Z,94.84
2018-04-06T04:41:52.485Z,94.84
2018-04-06T04:42:52.492Z,95.40
2018-04-06T04:43:52.870Z,95.69
2018-04-06T04:44:52.448Z,95.59
2018-04-06T04:45:52.423Z,95.50
2018-04-06T04:46:52.401Z,95.78
2018-04-06T04:47:52.375Z,95.97
2018-04-06T04:48:52.341Z,96.45
2018-04-06T04:49:52.324Z,96.16
2018-04-06T04:50:52.309Z,96.07
2018-04-06T04:51:52.294Z,96.35
2018-04-06T04:52:52.278Z,96.54
2018-04-06T04:53:52.262Z,96.92
2018-04-06T04:54:52.555Z,96.35
2018-04-06T04:55:52.361Z,96.35
2018-04-06T04:57:52.499Z,96.16
2018-04-06T05:00:52.442Z,95.78
2018-04-06T05:01:52.205Z,95.12
2018-04-06T05:02:52.188Z,94.84
2018-04-06T05:03:52.249Z,94.32
2018-04-06T05:04:52.147Z,93.89
2018-04-06T05:05:52.157Z,94.13
2018-04-06T05:06:52.154Z,94.65
2018-04-06T05:07:52.124Z,94.13
2018-04-06T05:08:52.284Z,93.75
2018-04-06T05:09:52.073Z,93.99
2018-04-06T05:10:52.069Z,94.51
2018-04-06T05:11:52.253Z,93.65
2018-04-06T05:12:52.039Z,93.37
2018-04-06T05:13:52.021Z,92.80
2018-04-06T05:14:52.019Z,93.18
2018-04-06T05:15:51.995Z,93.18
2018-04-06T05:16:51.964Z,93.27
2018-04-06T05:17:51.947Z,93.18
2018-04-06T05:18:51.909Z,92.99
2018-04-06T05:19:51.861Z,93.18
2018-04-06T05:20:51.845Z,93.18
2018-04-06T05:21:51.974Z,93.18
2018-04-06T05:22:51.874Z,92.80
2018-04-06T05:24:51.839Z,92.71
2018-04-06T05:25:51.864Z,93.08
2018-04-06T05:26:51.867Z,93.18
2018-04-06T05:28:51.742Z,92.71
2018-04-06T05:29:51.756Z,92.80
2018-04-06T05:30:51.781Z,92.80
2018-04-06T05:31:51.774Z,92.61
2018-04-06T05:32:52.360Z,92.33
2018-04-06T05:33:51.726Z,92.61
2018-04-06T05:34:51.708Z,92.80
2018-04-06T05:35:51.618Z,92.61
2018-04-06T05:36:51.652Z,92.43
2018-04-06T05:37:51.644Z,92.24
2018-04-06T05:38:51.684Z,91.86
2018-04-06T05:39:51.646Z,91.76
2018-04-06T05:40:51.581Z,91.57
2018-04-06T05:41:51.590Z,91.48
2018-04-06T05:42:51.920Z,90.91
2018-04-06T05:44:51.565Z,91.00
2018-04-06T05:45:51.516Z,91.19
2018-04-06T05:46:51.511Z,90.81
2018-04-06T05:47:51.516Z,90.81
2018-04-06T05:48:51.498Z,90.81
2018-04-06T05:49:51.415Z,90.20
2018-04-06T05:50:51.440Z,90.01
2018-04-06T05:51:51.391Z,90.01
2018-04-06T05:52:51.601Z,90.29
2018-04-06T05:53:51.430Z,89.72
2018-04-06T05:54:51.390Z,89.82
2018-04-06T05:55:51.397Z,89.53
2018-04-06T05:56:51.408Z,89.72
2018-04-06T05:57:51.548Z,89.34
2018-04-06T05:59:51.284Z,89.06
2018-04-06T06:00:51.305Z,89.15
2018-04-06T06:01:51.268Z,89.53
2018-04-06T06:02:51.532Z,89.53
2018-04-06T06:04:51.238Z,89.44
2018-04-06T06:05:51.204Z,89.44
2018-04-06T06:06:51.192Z,89.53
2018-04-06T06:07:51.192Z,89.34
2018-04-06T06:08:51.371Z,89.44
2018-04-06T06:09:51.208Z,89.63
2018-04-06T06:10:51.140Z,89.44
2018-04-06T06:11:51.131Z,88.96
2018-04-06T06:12:51.113Z,88.40
2018-04-06T06:13:51.133Z,88.02
2018-04-06T06:15:51.060Z,88.21
2018-04-06T06:16:51.025Z,88.40
2018-04-06T06:17:51.005Z,88.11
2018-04-06T06:18:50.961Z,88.02
2018-04-06T06:19:51.001Z,87.87
2018-04-06T06:20:51.008Z,86.93
2018-04-06T06:21:50.975Z,87.30
2018-04-06T06:22:50.976Z,87.30
2018-04-06T06:23:50.962Z,87.21
2018-04-06T06:24:50.891Z,86.93
2018-04-06T06:25:50.877Z,86.45
2018-04-06T06:26:50.953Z,86.45
2018-04-06T06:27:50.861Z,86.64
2018-04-06T06:28:50.868Z,86.26
2018-04-06T06:30:50.836Z,85.88
2018-04-06T06:31:50.830Z,85.88
2018-04-06T06:32:50.846Z,85.60
2018-04-06T06:33:50.824Z,85.03
2018-04-06T06:34:50.849Z,84.84
2018-04-06T06:35:51.160Z,84.31
2018-04-06T06:36:50.812Z,84.69
2018-04-06T06:37:50.767Z,84.59
2018-04-06T06:38:50.765Z,85.36
2018-04-06T06:39:50.733Z,84.50
2018-04-06T06:40:50.705Z,83.94
2018-04-06T06:41:50.689Z,83.46
2018-04-06T06:42:50.874Z,83.74
2018-04-06T06:43:50.662Z,84.03
2018-04-06T06:44:50.712Z,83.27
2018-04-06T06:45:50.851Z,84.03
2018-04-06T06:46:50.664Z,83.46
2018-04-06T06:47:50.661Z,83.74
2018-04-06T06:48:50.860Z,84.50
2018-04-06T06:49:50.815Z,84.22
2018-04-06T06:50:50.693Z,82.89
2018-04-06T06:51:50.781Z,83.08
2018-04-06T06:52:50.588Z,83.36
2018-04-06T06:53:50.524Z,82.89
2018-04-06T06:54:50.524Z,82.04
2018-04-06T06:55:50.508Z,82.98
2018-04-06T06:56:50.557Z,83.17
2018-04-06T06:57:50.457Z,82.27
2018-04-06T06:58:50.469Z,82.36
2018-04-06T06:59:50.474Z,82.84
2018-04-06T07:00:50.418Z,80.94
2018-04-06T07:01:50.357Z,81.23
2018-04-06T07:02:50.387Z,81.23
2018-04-06T07:03:50.428Z,80.84
2018-04-06T07:04:50.347Z,81.13
2018-04-06T07:05:50.325Z,80.84
2018-04-06T07:07:50.360Z,79.61
2018-04-06T07:08:50.550Z,80.37
2018-04-06T07:09:50.544Z,80.98
2018-04-06T07:10:50.310Z,79.55
2018-04-06T07:12:50.316Z,78.70
2018-04-06T07:13:50.279Z,78.23
2018-04-06T07:14:50.265Z,78.89
2018-04-06T07:15:50.238Z,79.27
2018-04-06T07:16:50.414Z,77.94
2018-04-06T07:17:50.211Z,78.23
2018-04-06T07:18:50.205Z,77.56
2018-04-06T07:19:50.194Z,77.47
2018-04-06T07:20:50.105Z,77.98
2018-04-06T07:21:50.803Z,77.51
2018-04-06T07:22:50.196Z,77.31
2018-04-06T07:23:50.116Z,76.93
2018-04-06T07:24:50.096Z,76.75
2018-04-06T07:25:50.046Z,76.93
2018-04-06T07:26:50.119Z,77.79
2018-04-06T07:27:50.124Z,76.40
2018-04-06T07:28:50.104Z,75.74
2018-04-06T07:29:50.040Z,74.60
2018-04-06T07:30:50.043Z,73.27
2018-04-06T07:31:49.967Z,71.37
2018-04-06T07:32:50.031Z,71.27
2018-04-06T07:33:49.998Z,71.56
2018-04-06T07:34:49.938Z,71.78
2018-04-06T07:35:49.980Z,71.59
2018-04-06T07:36:49.999Z,70.64
2018-04-06T07:37:50.035Z,69.21
2018-04-06T07:38:49.951Z,69.41
2018-04-06T07:39:49.917Z,69.63
2018-04-06T07:40:50.014Z,69.06
2018-04-06T07:41:49.983Z,67.25
2018-04-06T07:42:49.953Z,66.68
2018-04-06T07:43:49.887Z,67.79
2018-04-06T07:44:49.911Z,67.22
2018-04-06T07:45:49.882Z,67.82
2018-04-06T07:46:49.905Z,68.01
2018-04-06T07:47:49.854Z,67.16
2018-04-06T07:48:49.878Z,66.91
2018-04-06T07:50:50.391Z,65.38
2018-04-06T07:51:49.858Z,63.96
2018-04-06T07:52:49.853Z,63.96
2018-04-06T07:54:49.874Z,63.01
2018-04-06T07:55:49.856Z,63.67
2018-04-06T07:56:49.865Z,65.19
2018-04-06T07:58:49.826Z,63.13
2018-04-06T07:59:49.839Z,61.32
2018-04-06T08:00:49.838Z,60.85
2018-04-06T08:01:49.869Z,60.75
2018-04-06T08:02:49.862Z,61.42
2018-04-06T08:03:49.868Z,60.46
2018-04-06T08:05:49.837Z,60.27
2018-04-06T08:06:49.826Z,59.99
2018-04-06T08:07:50.026Z,59.89
2018-04-06T08:09:49.768Z,59.80
2018-04-06T08:10:49.813Z,60.37
2018-04-06T08:11:50.048Z,59.13
2018-04-06T08:12:50.015Z,59.51
2018-04-06T08:13:50.042Z,59.42
2018-04-06T08:14:49.802Z,59.32
2018-04-06T08:15:49.832Z,60.56
2018-04-06T08:16:49.771Z,61.73
2018-04-06T08:17:49.767Z,59.74
2018-04-06T08:18:49.987Z,58.30
2018-04-06T08:19:49.806Z,58.50
2018-04-06T08:20:49.841Z,58.43
2018-04-06T08:21:49.984Z,58.43
2018-04-06T08:22:49.783Z,56.43
2018-04-06T08:23:49.954Z,57.38
2018-04-06T08:24:49.782Z,57.60
2018-04-06T08:25:49.775Z,55.21
2018-04-06T08:26:49.842Z,54.36
2018-04-06T08:27:49.789Z,54.26
2018-04-06T08:29:49.829Z,52.90
2018-04-06T08:30:49.817Z,53.35
2018-04-06T08:31:49.777Z,54.39
2018-04-06T08:32:49.839Z,54.61
2018-04-06T08:33:49.783Z,54.90
2018-04-06T08:34:49.762Z,54.61
2018-04-06T08:35:49.787Z,54.17
2018-04-06T08:36:49.765Z,53.12
2018-04-06T08:37:49.786Z,53.02
2018-04-06T08:38:49.792Z,53.21
2018-04-06T08:39:49.821Z,52.16
2018-04-06T08:41:49.791Z,51.40
2018-04-06T08:42:49.737Z,52.07
2018-04-06T08:43:49.835Z,50.95
2018-04-06T08:44:49.767Z,51.04
2018-04-06T08:45:49.777Z,51.04
2018-04-06T08:46:49.819Z,50.57
2018-04-06T08:47:49.766Z,49.54
2018-04-06T08:48:49.815Z,48.37
2018-04-06T08:49:49.938Z,49.04
2018-04-06T08:50:49.840Z,49.13
2018-04-06T08:51:49.784Z,49.04
2018-04-06T08:52:49.770Z,48.47
2018-04-06T08:54:49.992Z,49.21
2018-04-06T08:55:49.841Z,49.40
2018-04-06T08:56:49.870Z,50.26
2018-04-06T08:57:49.799Z,49.40
2018-04-06T08:58:49.773Z,49.40
2018-04-06T08:59:50.015Z,48.63
2018-04-06T09:00:49.811Z,49.40
2018-04-06T09:01:49.807Z,49.59
2018-04-06T09:03:49.986Z,48.47
2018-04-06T09:04:49.798Z,48.47
2018-04-06T09:05:50.032Z,49.23
2018-04-06T09:06:49.865Z,48.30
2018-04-06T09:07:50.027Z,48.33
2018-04-06T09:08:49.851Z,46.51
2018-04-06T09:09:51.198Z,47.20
2018-04-06T09:10:50.026Z,46.44
2018-04-06T09:11:49.858Z,43.55
2018-04-06T09:12:49.818Z,45.08
2018-04-06T09:13:49.822Z,44.98
2018-04-06T09:14:49.849Z,45.65
2018-04-06T09:15:49.839Z,47.56
2018-04-06T09:16:50.026Z,46.06
2018-04-06T09:17:49.813Z,46.06
2018-04-06T09:18:49.866Z,45.10
2018-04-06T09:19:49.835Z,44.34
2018-04-06T09:20:49.818Z,44.72
2018-04-06T09:21:49.840Z,44.62
2018-04-06T09:22:49.874Z,44.43
2018-04-06T09:23:49.846Z,43.26
2018-04-06T09:24:49.827Z,43.74
2018-04-06T09:25:49.872Z,45.06
2018-04-06T09:26:50.070Z,46.11
2018-04-06T09:27:50.286Z,46.11
2018-04-06T09:28:49.860Z,46.48
2018-04-06T09:29:49.868Z,46.61
2018-04-06T09:30:49.851Z,46.42
2018-04-06T09:31:49.859Z,45.77
2018-04-06T09:32:49.821Z,44.72
2018-04-06T09:33:49.877Z,45.03
2018-04-06T09:34:49.845Z,43.76
2018-04-06T09:35:49.852Z,44.91
2018-04-06T09:36:49.850Z,45.31
2018-04-06T09:37:49.845Z,45.60
2018-04-06T09:38:49.859Z,46.08
2018-04-06T09:39:49.866Z,45.70
2018-04-06T09:40:49.868Z,45.53
2018-04-06T09:41:49.845Z,43.43
2018-04-06T09:42:49.859Z,42.56
2018-04-06T09:43:49.859Z,42.94
2018-04-06T09:44:49.870Z,43.52
2018-04-06T09:45:49.873Z,42.94
2018-04-06T09:46:49.873Z,43.52
2018-04-06T09:47:49.905Z,44.09
2018-04-06T09:48:49.929Z,44.31
2018-04-06T09:49:50.128Z,44.88
2018-04-06T09:50:50.088Z,44.71
2018-04-06T09:51:49.984Z,42.13
2018-04-06T09:52:49.921Z,41.05
2018-04-06T09:53:49.917Z,41.91
2018-04-06T09:54:49.976Z,40.58
2018-04-06T09:55:49.995Z,40.55
2018-04-06T09:56:49.983Z,42.37
2018-04-06T09:57:49.996Z,41.41
2018-04-06T09:58:49.992Z,40.94
2018-04-06T09:59:49.935Z,41.11
2018-04-06T10:00:50.127Z,41.78
2018-04-06T10:01:49.956Z,42.56
2018-04-06T10:02:49.989Z,41.61
2018-04-06T10:03:49.991Z,41.99
2018-04-06T10:04:50.039Z,42.27
2018-04-06T10:05:49.985Z,40.55
2018-04-06T10:06:50.004Z,40.26
2018-04-06T10:07:49.969Z,40.84
2018-04-06T10:08:49.976Z,42.56
2018-04-06T10:09:50.062Z,41.34
2018-04-06T10:10:50.100Z,41.53
2018-04-06T10:11:50.263Z,42.22
2018-04-06T10:12:50.016Z,40.02
2018-04-06T10:13:50.246Z,39.65
2018-04-06T10:15:50.214Z,38.20
2018-04-06T10:16:50.067Z,38.66
2018-04-06T10:17:50.109Z,38.30
2018-04-06T10:18:50.291Z,38.56
2018-04-06T10:19:50.125Z,38.18
2018-04-06T10:20:50.114Z,38.30
2018-04-06T10:21:50.120Z,38.96
2018-04-06T10:22:50.306Z,39.83
2018-04-06T10:23:50.046Z,39.64
2018-04-06T10:24:50.131Z,39.73
2018-04-06T10:25:50.118Z,41.28
2018-04-06T10:26:50.141Z,37.15
2018-04-06T10:27:50.142Z,38.10
2018-04-06T10:28:50.142Z,38.59
2018-04-06T10:29:50.134Z,39.85
2018-04-06T10:30:50.226Z,38.70
2018-04-06T10:31:50.136Z,36.79
2018-04-06T10:32:50.194Z,35.52
2018-04-06T10:33:50.145Z,36.57
2018-04-06T10:34:50.230Z,37.13
2018-04-06T10:35:50.168Z,38.37
2018-04-06T10:36:50.183Z,39.45
2018-04-06T10:37:50.188Z,38.10
2018-04-06T10:38:50.147Z,37.43
2018-04-06T10:39:50.256Z,39.45
2018-04-06T10:40:50.225Z,41.28
2018-04-06T10:41:50.200Z,40.27
2018-04-06T10:42:50.600Z,38.16
2018-04-06T10:43:50.450Z,36.80
2018-04-06T10:44:50.239Z,36.71
2018-04-06T10:45:50.437Z,35.75
2018-04-06T10:46:50.316Z,37.85
2018-04-06T10:47:50.267Z,36.71
2018-04-06T10:48:50.262Z,37.87
2018-04-06T10:49:50.260Z,37.49
2018-04-06T10:50:50.256Z,37.40
2018-04-06T10:51:50.464Z,35.48
2018-04-06T10:52:50.268Z,35.10
2018-04-06T10:53:50.295Z,36.32
2018-04-06T10:54:50.294Z,36.82
2018-04-06T10:55:50.314Z,36.24
2018-04-06T10:56:50.363Z,36.24
2018-04-06T10:57:50.269Z,36.63
2018-04-06T10:58:50.318Z,36.05
2018-04-06T10:59:50.325Z,33.53
2018-04-06T11:00:50.351Z,34.39
2018-04-06T11:01:50.287Z,38.79
2018-04-06T11:02:50.330Z,36.51
2018-04-06T11:03:50.314Z,37.47
2018-04-06T11:04:50.373Z,36.53
2018-04-06T11:05:50.388Z,35.11
2018-04-06T11:06:50.382Z,33.47
2018-04-06T11:07:50.328Z,35.00
2018-04-06T11:08:50.391Z,34.52
2018-04-06T11:09:50.368Z,33.75
2018-04-06T11:10:50.347Z,33.45
2018-04-06T11:11:50.392Z,34.50
2018-04-06T11:12:50.598Z,33.73
2018-04-06T11:13:50.406Z,34.48
2018-04-06T11:14:50.550Z,34.48
2018-04-06T11:15:50.352Z,34.79
2018-04-06T11:16:50.438Z,33.06
2018-04-06T11:17:50.440Z,32.68
2018-04-06T11:19:50.400Z,33.73
2018-04-06T11:20:50.436Z,32.95
2018-04-06T11:21:50.448Z,33.91
2018-04-06T11:22:50.449Z,33.91
2018-04-06T11:23:50.401Z,35.06
2018-04-06T11:24:50.400Z,37.07
2018-04-06T11:25:50.465Z,34.98
2018-04-06T11:26:50.478Z,35.06
2018-04-06T11:27:50.484Z,33.81
2018-04-06T11:28:50.419Z,34.31
2018-04-06T11:29:50.422Z,33.43
2018-04-06T11:30:50.430Z,34.79
2018-04-06T11:31:50.435Z,34.02
2018-04-06T11:32:50.437Z,34.20
2018-04-06T11:33:50.440Z,33.53
2018-04-06T11:34:50.445Z,33.91
2018-04-06T11:35:50.456Z,34.10
2018-04-06T11:36:50.453Z,33.53
2018-04-06T11:37:50.488Z,34.67
2018-04-06T11:38:50.459Z,34.58
2018-04-06T11:39:50.476Z,32.86
2018-04-06T11:40:50.468Z,33.72
2018-04-06T11:41:50.473Z,32.86
2018-04-06T11:42:50.495Z,33.62
2018-04-06T11:43:50.482Z,32.47
2018-04-06T11:44:50.480Z,34.10
2018-04-06T11:45:50.480Z,34.12
2018-04-06T11:46:50.489Z,35.57
2018-04-06T11:47:50.488Z,32.79
2018-04-06T11:48:50.529Z,31.74
2018-04-06T11:49:50.504Z,32.98
2018-04-06T11:50:50.501Z,32.81
2018-04-06T11:51:50.502Z,32.31
2018-04-06T11:52:50.515Z,33.65
2018-04-06T11:53:50.509Z,32.31
2018-04-06T11:55:50.533Z,32.59
2018-04-06T11:56:50.522Z,34.14
2018-04-06T11:57:50.524Z,34.42
2018-04-06T11:58:50.529Z,33.77
2018-04-06T11:59:50.599Z,33.67
2018-04-06T12:00:50.536Z,35.22
2018-04-06T12:01:50.542Z,35.32
2018-04-06T12:02:50.547Z,32.64
2018-04-06T12:03:50.548Z,32.34
2018-04-06T12:04:50.553Z,34.17
2018-04-06T12:05:50.555Z,33.61
2018-04-06T12:06:50.601Z,32.93
2018-04-06T12:07:50.608Z,31.49
2018-04-06T12:08:50.568Z,31.61
2018-04-06T12:09:50.572Z,31.02
2018-04-06T12:10:50.576Z,31.40
2018-04-06T12:11:50.580Z,31.87
2018-04-06T12:12:50.585Z,31.20
2018-04-06T12:13:50.659Z,32.81
2018-04-06T12:15:50.625Z,32.36
2018-04-06T12:16:50.606Z,30.92
2018-04-06T12:17:50.608Z,30.44
2018-04-06T12:18:50.608Z,31.88
2018-04-06T12:19:50.614Z,31.59
2018-04-06T12:20:50.617Z,30.65
2018-04-06T12:21:50.620Z,30.07
2018-04-06T12:22:50.674Z,30.93
2018-04-06T12:23:50.642Z,28.91
2018-04-06T12:24:50.634Z,29.48
2018-04-06T12:25:50.635Z,30.71
2018-04-06T12:26:50.641Z,31.29
2018-04-06T12:27:50.647Z,31.75
2018-04-06T12:28:50.713Z,33.69
2018-04-06T12:29:50.652Z,31.49
2018-04-06T12:30:50.755Z,31.30
2018-04-06T12:31:50.655Z,30.44
2018-04-06T12:32:50.729Z,30.46
2018-04-06T12:33:50.660Z,29.48
2018-04-06T12:34:50.667Z,31.02
2018-04-06T12:35:50.666Z,31.98
2018-04-06T12:36:50.678Z,30.74
2018-04-06T12:37:50.710Z,30.44
2018-04-06T12:38:50.681Z,31.41
2018-04-06T12:39:50.676Z,30.46
2018-04-06T12:40:50.679Z,31.53
2018-04-06T12:41:50.707Z,31.26
2018-04-06T12:42:50.767Z,30.60
2018-04-06T12:43:50.689Z,28.37
2018-04-06T12:44:50.689Z,26.72
2018-04-06T12:45:50.690Z,27.66
2018-04-06T12:46:50.692Z,28.91
2018-04-06T12:47:50.768Z,29.79
2018-04-06T12:48:50.711Z,29.30
2018-04-06T12:49:50.700Z,28.74
2018-04-06T12:50:50.702Z,29.80
2018-04-06T12:51:50.717Z,28.05
2018-04-06T12:52:50.703Z,28.23
2018-04-06T12:53:50.704Z,30.36
2018-04-06T12:54:50.704Z,28.44
2018-04-06T12:55:50.706Z,29.59
2018-04-06T12:56:50.708Z,30.47
2018-04-06T12:57:50.714Z,29.13
2018-04-06T12:58:50.717Z,28.18
2018-04-06T12:59:50.709Z,27.78
2018-04-06T13:00:50.712Z,27.59
2018-04-06T13:01:50.713Z,28.36
2018-04-06T13:02:50.713Z,29.44
2018-04-06T13:03:50.712Z,26.94
2018-04-06T13:04:50.717Z,25.85
2018-04-06T13:05:50.800Z,27.95
2018-04-06T13:06:50.744Z,29.41
2018-04-06T13:07:50.727Z,28.74
2018-04-06T13:08:50.718Z,29.81
2018-04-06T13:09:50.720Z,28.96
2018-04-06T13:10:50.718Z,28.86
2018-04-06T13:11:50.754Z,29.35
2018-04-06T13:12:50.772Z,28.88
2018-04-06T13:13:50.716Z,27.93
2018-04-06T13:14:50.720Z,26.36
2018-04-06T13:15:50.717Z,27.81
2018-04-06T13:16:50.723Z,27.40
2018-04-06T13:17:50.716Z,26.72